Time;durP1;ratioP1;P1;durP2;ratioP2;P2;SDS_P1;SDS_P2;PMS_P1;PMS_P2;Temp;Humidity;BMP_temperature;BMP_pressure;BME280_temperature;BME280_humidity;BME280_pressure;Samples;Min_cycle;Max_cycle;Signal;HPM_P1;HPM_P2
2022/01/22 00:00:19;;;;;;;17.52;3.17;;;6.60;99.90;;;;;;5052881;28;20021;-73
2022/01/22 00:02:45;;;;;;;15.07;2.33;;;6.60;99.90;;;;;;5048683;28;20029;-73
2022/01/22 00:05:12;;;;;;;16.23;2.50;;;6.60;99.90;;;;;;5052662;28;20108;-73
2022/01/22 00:07:37;;;;;;;13.43;2.50;;;6.60;99.90;;;;;;5053212;28;20059;-73
2022/01/22 00:10:13;;;;;;;18.30;2.70;;;6.60;99.90;;;;;;5053202;28;20029;-74
2022/01/22 00:15:09;;;;;;;15.55;3.17;;;6.50;99.90;;;;;;5047199;28;20111;-74
2022/01/22 00:17:35;;;;;;;15.38;2.80;;;6.60;99.90;;;;;;5034305;28;20033;-74
2022/01/22 00:20:00;;;;;;;14.43;2.58;;;6.60;99.90;;;;;;5050123;28;20033;-73
2022/01/22 00:22:30;;;;;;;23.38;2.55;;;6.60;99.90;;;;;;5056400;28;20039;-74
2022/01/22 00:25:01;;;;;;;15.23;2.53;;;6.60;99.90;;;;;;5052793;28;20027;-74
2022/01/22 00:27:28;;;;;;;16.20;2.53;;;6.60;99.90;;;;;;5051643;28;20033;-74
2022/01/22 00:29:54;;;;;;;15.07;2.40;;;6.60;99.90;;;;;;5050741;28;20028;-74
2022/01/22 00:32:20;;;;;;;16.05;3.22;;;6.70;99.90;;;;;;5050940;28;20029;-74
2022/01/22 00:34:46;;;;;;;17.80;2.97;;;6.70;99.90;;;;;;5050476;28;20400;-74
2022/01/22 00:37:12;;;;;;;14.57;2.33;;;6.80;99.90;;;;;;5050633;28;20078;-74
2022/01/22 00:39:38;;;;;;;10.48;2.10;;;6.80;99.90;;;;;;5050842;28;20377;-74
2022/01/22 00:42:10;;;;;;;17.75;2.85;;;6.80;99.90;;;;;;5051588;28;20063;-74
2022/01/22 00:44:36;;;;;;;12.93;2.53;;;6.80;99.90;;;;;;5052542;28;20032;-74
2022/01/22 00:47:02;;;;;;;19.17;3.22;;;6.80;99.90;;;;;;5052564;28;20059;-75
2022/01/22 00:49:29;;;;;;;19.98;2.80;;;6.80;99.90;;;;;;5052106;28;20037;-74
2022/01/22 00:51:55;;;;;;;18.00;3.10;;;6.90;99.90;;;;;;5052767;28;20108;-74
2022/01/22 00:54:20;;;;;;;13.75;2.67;;;6.80;99.90;;;;;;5052251;28;20120;-74
2022/01/22 00:56:46;;;;;;;9.07;2.55;;;6.80;99.90;;;;;;5053994;28;20040;-74
2022/01/22 00:59:12;;;;;;;13.60;3.15;;;6.80;99.90;;;;;;5056159;28;20024;-74
2022/01/22 01:01:37;;;;;;;12.90;2.63;;;6.80;99.90;;;;;;5056160;28;20074;-74
2022/01/22 01:04:04;;;;;;;22.48;2.97;;;6.80;99.90;;;;;;5056698;28;20591;-74
2022/01/22 01:06:30;;;;;;;9.45;2.05;;;6.80;99.90;;;;;;5055934;28;20049;-75
2022/01/22 01:08:56;;;;;;;16.17;2.92;;;6.80;99.90;;;;;;5056099;28;20557;-74
2022/01/22 01:11:25;;;;;;;16.40;2.70;;;6.80;99.90;;;;;;5056681;28;20028;-75
2022/01/22 01:13:56;;;;;;;18.40;2.97;;;6.80;99.90;;;;;;5056449;28;20044;-74
2022/01/22 01:16:44;;;;;;;9.95;2.28;;;6.80;99.90;;;;;;5056665;28;20099;-73
2022/01/22 01:33:17;;;;;;;19.67;2.92;;;6.80;99.90;;;;;;5036774;28;20103;-73
2022/01/22 01:35:43;;;;;;;19.75;3.47;;;6.90;99.90;;;;;;5055741;28;20032;-73
2022/01/22 01:38:09;;;;;;;20.42;3.25;;;6.80;99.90;;;;;;5056239;28;20416;-73
2022/01/22 01:40:39;;;;;;;12.30;3.20;;;6.90;99.90;;;;;;5055762;28;20119;-73
2022/01/22 01:43:10;;;;;;;19.23;3.78;;;6.80;99.90;;;;;;5055950;28;20083;-73
2022/01/22 01:45:36;;;;;;;13.98;3.22;;;6.80;99.90;;;;;;5055748;28;20082;-73
2022/01/22 01:48:08;;;;;;;13.80;3.00;;;6.80;99.90;;;;;;5055632;28;20460;-73
2022/01/22 01:50:37;;;;;;;13.63;3.63;;;6.90;99.90;;;;;;5055104;28;20025;-73
2022/01/22 01:55:49;;;;;;;17.73;3.40;;;6.90;99.90;;;;;;5055485;28;20108;-73
2022/01/22 01:58:16;;;;;;;13.93;3.00;;;6.80;99.90;;;;;;5055260;28;20614;-73
2022/01/22 02:00:42;;;;;;;20.25;3.85;;;6.80;99.90;;;;;;5055216;28;20021;-73
2022/01/22 02:03:09;;;;;;;13.45;3.95;;;6.80;99.90;;;;;;5055670;28;20025;-73
2022/01/22 02:05:36;;;;;;;22.92;4.35;;;6.80;99.90;;;;;;5055297;28;20028;-73
2022/01/22 02:08:02;;;;;;;16.67;4.07;;;6.80;99.90;;;;;;5054410;28;20045;-73
2022/01/22 02:10:28;;;;;;;16.10;3.88;;;6.80;99.90;;;;;;5054320;28;20467;-73
2022/01/22 02:23:39;;;;;;;17.83;4.70;;;7.00;99.90;;;;;;5058981;28;20044;-73
2022/01/22 02:26:08;;;;;;;19.50;4.72;;;7.00;99.90;;;;;;5055221;28;20078;-73
2022/01/22 02:28:34;;;;;;;11.50;4.55;;;7.00;99.90;;;;;;5054801;28;20477;-73
2022/01/22 02:31:10;;;;;;;19.25;5.10;;;7.00;99.90;;;;;;5054790;28;20028;-73
2022/01/22 02:34:15;;;;;;;19.30;4.28;;;7.00;99.90;;;;;;5054869;28;20108;-73
2022/01/22 02:36:42;;;;;;;14.82;4.78;;;7.00;99.90;;;;;;5048090;28;20384;-73
2022/01/22 02:41:42;;;;;;;15.70;4.82;;;7.00;99.90;;;;;;5047284;28;20116;-74
2022/01/22 02:44:21;;;;;;;16.10;4.05;;;7.00;99.90;;;;;;5054782;28;20104;-73
2022/01/22 02:46:48;;;;;;;18.52;4.72;;;7.00;99.90;;;;;;5054741;28;20036;-72
2022/01/22 02:49:14;;;;;;;16.75;4.97;;;7.00;99.90;;;;;;5054423;28;20086;-72
2022/01/22 02:51:40;;;;;;;20.45;5.03;;;6.90;99.90;;;;;;5054184;28;20033;-72
2022/01/22 02:54:05;;;;;;;18.58;4.85;;;6.90;99.90;;;;;;5054304;28;20033;-75
2022/01/22 02:56:31;;;;;;;20.67;5.03;;;6.90;99.90;;;;;;5054105;28;20044;-74
2022/01/22 02:58:59;;;;;;;16.95;4.57;;;6.90;99.90;;;;;;5054135;28;20059;-74
2022/01/22 03:01:24;;;;;;;20.70;5.72;;;7.00;99.90;;;;;;5054242;28;20033;-75
2022/01/22 03:03:53;;;;;;;18.15;4.95;;;6.90;99.90;;;;;;5054559;28;20051;-75
2022/01/22 03:06:19;;;;;;;18.40;5.65;;;6.90;99.90;;;;;;5054189;28;20045;-76
2022/01/22 03:08:46;;;;;;;18.30;4.85;;;7.00;99.90;;;;;;5054099;28;20107;-76
2022/01/22 03:11:19;;;;;;;21.95;4.57;;;7.00;99.90;;;;;;5053842;28;20028;-76
2022/01/22 03:19:33;;;;;;;19.95;5.18;;;7.10;99.90;;;;;;5054365;28;20033;-76
2022/01/22 03:21:42;;;;;;;20.77;5.35;;;7.10;99.90;;;;;;5042347;28;20037;-76
2022/01/22 03:29:39;;;;;;;21.33;4.95;;;7.20;99.90;;;;;;5053659;28;20432;-76
2022/01/22 03:32:07;;;;;;;21.02;5.28;;;7.20;99.90;;;;;;5053856;28;20064;-76
2022/01/22 03:34:40;;;;;;;15.10;4.35;;;7.20;99.90;;;;;;5053677;28;20036;-76
2022/01/22 03:37:06;;;;;;;16.70;5.45;;;7.30;99.90;;;;;;5053634;28;20078;-76
2022/01/22 03:39:31;;;;;;;12.65;4.93;;;7.40;99.90;;;;;;5053483;28;20033;-75
2022/01/22 03:41:57;;;;;;;17.42;4.72;;;7.40;99.90;;;;;;5053393;28;20104;-75
2022/01/22 03:44:22;;;;;;;19.83;5.38;;;7.40;99.90;;;;;;5053752;28;20158;-75
2022/01/22 03:46:48;;;;;;;23.40;4.70;;;7.40;99.90;;;;;;5053319;28;20591;-75
2022/01/22 03:49:16;;;;;;;17.20;4.82;;;7.40;99.90;;;;;;5051471;28;20041;-74
2022/01/22 03:51:43;;;;;;;24.92;5.93;;;7.40;99.90;;;;;;5052155;28;20029;-74
2022/01/22 03:54:08;;;;;;;17.40;4.82;;;7.40;99.90;;;;;;5050783;28;20116;-74
2022/01/22 03:56:34;;;;;;;15.15;4.88;;;7.40;99.90;;;;;;5041266;28;20172;-74
2022/01/22 03:59:01;;;;;;;19.50;5.93;;;7.40;99.90;;;;;;5034523;28;20044;-74
2022/01/22 04:04:07;;;;;;;16.23;4.78;;;7.40;99.90;;;;;;5051726;28;20028;-74
2022/01/22 04:09:11;;;;;;;16.48;4.57;;;7.30;99.90;;;;;;5034113;28;20128;-74
2022/01/22 04:11:41;;;;;;;13.77;4.57;;;7.30;99.90;;;;;;5035119;28;20412;-72
2022/01/22 04:14:14;;;;;;;16.38;4.43;;;7.30;99.90;;;;;;5052591;28;20109;-74
2022/01/22 04:16:47;;;;;;;12.20;4.03;;;7.30;99.90;;;;;;5053096;28;20468;-73
2022/01/22 04:24:51;;;;;;;10.82;3.38;;;7.30;99.90;;;;;;5052777;28;20039;-74
2022/01/22 04:27:23;;;;;;;13.88;4.32;;;7.30;99.90;;;;;;5052184;28;20066;-73
2022/01/22 04:29:49;;;;;;;12.77;3.85;;;7.30;99.90;;;;;;5052310;28;20055;-73
2022/01/22 04:32:15;;;;;;;18.10;4.20;;;7.30;99.90;;;;;;5050589;28;20091;-73
2022/01/22 04:34:40;;;;;;;11.80;3.45;;;7.30;99.90;;;;;;5051956;28;20032;-73
2022/01/22 04:37:06;;;;;;;18.30;3.95;;;7.40;99.90;;;;;;5052376;28;20090;-74
2022/01/22 04:39:32;;;;;;;18.20;3.88;;;7.40;99.90;;;;;;5052938;28;20472;-74
2022/01/22 04:41:58;;;;;;;22.90;4.63;;;7.40;99.90;;;;;;5052899;28;20112;-73
2022/01/22 04:44:33;;;;;;;13.32;3.33;;;7.40;99.90;;;;;;5052476;28;20468;-74
2022/01/22 04:47:16;;;;;;;9.95;3.15;;;7.40;99.90;;;;;;5052913;28;20127;-73
2022/01/22 04:52:40;;;;;;;12.85;3.05;;;7.40;99.90;;;;;;5052719;28;20078;-73
2022/01/22 04:55:08;;;;;;;12.75;3.28;;;7.40;99.90;;;;;;5052302;28;20495;-73
2022/01/22 04:57:40;;;;;;;20.60;3.70;;;7.40;99.90;;;;;;5033024;28;20029;-74
2022/01/22 05:00:09;;;;;;;14.98;3.30;;;7.40;99.90;;;;;;5044733;28;20057;-73
2022/01/22 05:02:35;;;;;;;16.17;2.63;;;7.40;99.90;;;;;;5049911;28;20036;-73
2022/01/22 05:05:01;;;;;;;16.58;2.90;;;7.40;99.90;;;;;;5052734;28;20033;-73
2022/01/22 05:07:27;;;;;;;10.73;2.53;;;7.40;99.90;;;;;;5051986;28;20135;-73
2022/01/22 05:09:52;;;;;;;13.80;2.70;;;7.40;99.90;;;;;;5052557;28;20187;-74
2022/01/22 05:12:18;;;;;;;10.80;2.90;;;7.30;99.90;;;;;;5053653;28;20119;-73
2022/01/22 05:14:44;;;;;;;12.35;3.20;;;7.40;99.90;;;;;;5052374;28;21323;-73
2022/01/22 05:17:09;;;;;;;13.27;2.67;;;7.30;99.90;;;;;;5052109;28;20029;-73
2022/01/22 05:25:08;;;;;;;14.35;2.63;;;7.40;99.90;;;;;;5029976;28;20485;-75
2022/01/22 05:33:03;;;;;;;11.38;2.33;;;7.40;99.90;;;;;;5033126;28;20535;-76
2022/01/22 05:38:13;;;;;;;14.20;2.10;;;7.40;99.90;;;;;;5043277;28;20079;-76
2022/01/22 05:40:39;;;;;;;8.77;2.13;;;7.50;99.90;;;;;;5051807;28;20481;-74
2022/01/22 05:43:05;;;;;;;9.07;2.13;;;7.50;99.90;;;;;;5052625;28;20032;-74
2022/01/22 05:45:30;;;;;;;9.73;2.10;;;7.50;99.90;;;;;;5055084;28;20032;-74
2022/01/22 05:47:56;;;;;;;8.77;2.13;;;7.50;99.90;;;;;;5055886;28;20036;-75
2022/01/22 05:50:32;;;;;;;12.75;2.40;;;7.60;99.90;;;;;;5055729;28;20070;-74
2022/01/22 05:53:04;;;;;;;8.23;2.10;;;7.60;99.90;;;;;;5055574;28;20033;-74
2022/01/22 06:00:58;;;;;;;11.48;2.30;;;7.60;99.90;;;;;;5054762;28;20082;-74
2022/01/22 06:03:23;;;;;;;14.30;2.00;;;7.50;99.90;;;;;;5055306;28;20021;-73
2022/01/22 06:05:49;;;;;;;10.75;2.05;;;7.60;99.90;;;;;;5055056;28;20024;-74
2022/01/22 06:08:16;;;;;;;9.00;2.05;;;7.60;99.90;;;;;;5055398;28;20041;-72
2022/01/22 06:10:46;;;;;;;11.40;2.17;;;7.60;99.90;;;;;;5059504;28;20051;-73
2022/01/22 06:13:18;;;;;;;12.20;2.22;;;7.60;99.90;;;;;;5056875;28;20025;-73
2022/01/22 06:15:43;;;;;;;8.73;2.28;;;7.60;99.90;;;;;;5054605;28;20469;-76
2022/01/22 06:18:09;;;;;;;10.85;2.40;;;7.60;99.90;;;;;;5054710;28;20171;-78
2022/01/22 06:20:35;;;;;;;15.70;3.30;;;7.60;99.90;;;;;;5054761;28;20106;-74
2022/01/22 06:23:03;;;;;;;8.80;2.75;;;7.50;99.90;;;;;;5055451;28;20036;-74
2022/01/22 06:25:28;;;;;;;20.83;3.20;;;7.50;99.90;;;;;;5054658;28;20029;-73
2022/01/22 06:27:54;;;;;;;14.77;2.88;;;7.50;99.90;;;;;;5055365;28;20043;-74
2022/01/22 06:30:21;;;;;;;16.02;3.67;;;7.50;99.90;;;;;;5054475;28;20090;-74
2022/01/22 06:32:47;;;;;;;14.70;3.53;;;7.50;99.90;;;;;;5055089;28;20040;-74
2022/01/22 06:35:13;;;;;;;15.95;3.65;;;7.50;99.90;;;;;;5054745;28;20028;-73
2022/01/22 06:37:39;;;;;;;15.23;4.22;;;7.50;99.90;;;;;;5054746;28;20021;-74
2022/01/22 06:42:32;;;;;;;14.18;3.50;;;7.50;99.90;;;;;;5054413;28;20028;-73
2022/01/22 06:44:59;;;;;;;9.48;3.65;;;7.50;99.90;;;;;;5054503;28;20048;-73
2022/01/22 06:47:26;;;;;;;16.17;4.03;;;7.60;99.90;;;;;;5054832;28;20056;-73
2022/01/22 06:49:52;;;;;;;11.25;4.03;;;7.70;99.90;;;;;;5054090;28;20037;-75
2022/01/22 06:52:17;;;;;;;8.75;4.72;;;7.70;99.90;;;;;;5054664;28;20021;-73
2022/01/22 06:54:44;;;;;;;9.10;3.40;;;7.80;99.90;;;;;;5053840;28;20051;-73
2022/01/22 06:57:10;;;;;;;13.70;5.10;;;7.80;99.90;;;;;;5054237;28;20037;-74
2022/01/22 06:59:39;;;;;;;15.88;5.07;;;7.80;99.90;;;;;;5054415;28;20037;-74
2022/01/22 07:02:05;;;;;;;11.60;4.32;;;7.90;99.90;;;;;;5054411;28;20033;-76
2022/01/22 07:04:31;;;;;;;10.10;4.28;;;7.80;99.90;;;;;;5055095;28;20036;-77
2022/01/22 07:06:57;;;;;;;12.68;4.65;;;7.80;99.90;;;;;;5054170;28;20108;-75
2022/01/22 07:09:23;;;;;;;13.43;4.00;;;7.90;99.90;;;;;;5066847;28;20049;-79
2022/01/22 07:11:49;;;;;;;11.25;4.82;;;8.00;99.90;;;;;;5070819;28;20036;-80
2022/01/22 07:14:16;;;;;;;9.18;4.32;;;8.00;99.90;;;;;;5068746;28;20040;-82
2022/01/22 07:16:41;;;;;;;15.30;4.95;;;8.00;99.90;;;;;;5054315;28;20029;-81
2022/01/22 07:19:08;;;;;;;10.57;3.47;;;8.00;99.90;;;;;;5052411;28;20021;-80
2022/01/22 07:21:36;;;;;;;11.60;3.95;;;8.00;99.90;;;;;;5053719;28;20077;-78
2022/01/22 07:26:29;;;;;;;9.52;3.13;;;8.00;99.90;;;;;;5053764;28;20025;-78
2022/01/22 07:28:55;;;;;;;5.93;2.67;;;8.00;99.90;;;;;;5052940;28;20404;-75
2022/01/22 07:31:23;;;;;;;11.90;2.83;;;8.00;99.90;;;;;;5053434;28;20520;-76
2022/01/22 07:33:49;;;;;;;10.13;2.58;;;8.10;99.90;;;;;;5053115;28;20025;-75
2022/01/22 07:36:15;;;;;;;10.82;2.90;;;8.00;99.90;;;;;;5053484;28;20028;-76
2022/01/22 07:38:40;;;;;;;9.43;2.65;;;8.00;99.90;;;;;;5053351;28;20487;-76
2022/01/22 07:41:07;;;;;;;9.60;3.28;;;8.00;99.90;;;;;;5053456;28;20056;-79
2022/01/22 07:43:37;;;;;;;9.48;2.92;;;8.10;99.90;;;;;;5053975;28;20029;-77
2022/01/22 07:46:07;;;;;;;8.95;2.58;;;8.20;99.90;;;;;;5053237;28;20099;-79
2022/01/22 07:48:33;;;;;;;8.85;2.75;;;8.30;99.90;;;;;;5053820;28;20392;-79
2022/01/22 07:50:58;;;;;;;11.00;2.60;;;8.30;99.90;;;;;;5051794;28;20013;-78
2022/01/22 07:53:25;;;;;;;8.73;1.98;;;8.30;99.90;;;;;;5053505;28;20086;-77
2022/01/22 07:55:51;;;;;;;11.23;1.80;;;8.30;99.90;;;;;;5052872;28;20021;-76
2022/01/22 07:58:17;;;;;;;8.32;2.58;;;8.40;99.90;;;;;;5053713;28;20040;-73
2022/01/22 08:00:42;;;;;;;7.85;2.30;;;8.30;99.90;;;;;;5052919;28;20483;-74
2022/01/22 08:03:09;;;;;;;7.68;1.92;;;8.40;99.90;;;;;;5053448;28;20040;-74
2022/01/22 08:05:35;;;;;;;6.88;1.73;;;8.30;99.90;;;;;;5052340;28;20485;-71
2022/01/22 08:08:01;;;;;;;10.75;1.98;;;8.30;99.90;;;;;;5055516;28;20101;-74
2022/01/22 08:10:26;;;;;;;8.55;1.85;;;8.40;99.90;;;;;;5052680;28;20025;-73
2022/01/22 08:12:53;;;;;;;11.30;2.30;;;8.40;99.90;;;;;;5053507;28;20033;-73
2022/01/22 08:15:19;;;;;;;7.32;1.80;;;8.50;99.90;;;;;;5052695;28;20090;-73
2022/01/22 08:17:45;;;;;;;6.78;1.42;;;8.50;99.90;;;;;;5053011;28;20108;-73
2022/01/22 08:20:14;;;;;;;9.75;2.13;;;8.50;99.90;;;;;;5052953;28;20032;-74
2022/01/22 08:22:39;;;;;;;11.05;1.98;;;8.50;99.90;;;;;;5052937;28;20024;-75
2022/01/22 08:25:06;;;;;;;7.57;1.67;;;8.60;99.90;;;;;;5052574;28;20032;-74
2022/01/22 08:27:41;;;;;;;6.85;1.80;;;8.60;99.90;;;;;;5051609;28;20052;-73
2022/01/22 08:30:09;;;;;;;6.70;1.80;;;8.70;99.90;;;;;;5052468;28;20045;-73
2022/01/22 08:37:48;;;;;;;9.82;2.03;;;8.80;99.90;;;;;;5033027;28;20845;-74
2022/01/22 08:40:13;;;;;;;8.38;2.03;;;8.80;99.90;;;;;;5032833;28;20034;-78
2022/01/22 08:42:39;;;;;;;14.70;2.15;;;8.80;99.90;;;;;;5033376;28;20021;-79
2022/01/22 08:45:06;;;;;;;15.48;2.58;;;8.80;99.90;;;;;;5033177;28;20464;-77
2022/01/22 08:47:32;;;;;;;10.32;2.00;;;8.80;99.90;;;;;;5032898;28;20491;-74
2022/01/22 08:49:58;;;;;;;7.85;2.38;;;8.90;99.90;;;;;;5033260;28;20037;-75
2022/01/22 08:52:28;;;;;;;12.27;2.25;;;8.90;99.90;;;;;;5032740;28;20022;-75
2022/01/22 08:54:54;;;;;;;9.32;2.13;;;8.90;99.90;;;;;;5033047;28;20389;-75
2022/01/22 08:57:20;;;;;;;12.48;2.17;;;8.90;99.90;;;;;;5033179;28;20033;-75
2022/01/22 08:59:46;;;;;;;8.35;1.77;;;8.90;99.90;;;;;;5033235;28;20068;-74
2022/01/22 09:02:14;;;;;;;10.63;1.65;;;9.00;99.90;;;;;;5032843;28;20040;-75
2022/01/22 09:04:41;;;;;;;8.05;1.77;;;9.00;99.90;;;;;;5032865;28;20104;-74
2022/01/22 09:07:06;;;;;;;9.15;1.70;;;9.00;99.90;;;;;;5032556;28;20061;-75
2022/01/22 09:09:32;;;;;;;8.95;1.85;;;9.00;99.90;;;;;;5032915;28;20030;-75
2022/01/22 09:11:57;;;;;;;9.38;1.70;;;9.00;99.90;;;;;;5032940;28;20026;-75
2022/01/22 09:14:23;;;;;;;8.07;1.65;;;8.90;99.90;;;;;;5033073;28;20071;-75
2022/01/22 09:16:52;;;;;;;10.57;1.52;;;8.90;99.90;;;;;;5032863;28;20026;-75
2022/01/22 09:19:18;;;;;;;7.32;1.15;;;8.90;99.90;;;;;;5036498;28;20108;-74
2022/01/22 09:21:46;;;;;;;9.77;1.42;;;8.90;99.90;;;;;;5036722;28;20025;-75
2022/01/22 09:24:15;;;;;;;10.40;1.63;;;8.90;99.90;;;;;;5036717;28;20025;-74
2022/01/22 09:26:42;;;;;;;9.07;1.40;;;8.90;99.90;;;;;;5036786;28;20028;-74
2022/01/22 09:29:07;;;;;;;14.75;2.17;;;8.90;99.90;;;;;;5036180;28;20044;-74
2022/01/22 09:31:34;;;;;;;11.07;2.15;;;8.90;99.90;;;;;;5036281;28;20029;-73
2022/01/22 09:34:00;;;;;;;6.43;1.38;;;8.90;99.90;;;;;;5036184;28;20389;-75
2022/01/22 09:36:28;;;;;;;5.32;1.38;;;8.90;99.90;;;;;;5036153;28;20453;-74
2022/01/22 09:38:55;;;;;;;10.20;1.60;;;8.90;99.90;;;;;;5036219;28;20033;-74
2022/01/22 09:41:24;;;;;;;9.50;1.45;;;8.90;99.90;;;;;;5036142;28;20104;-75
2022/01/22 09:43:50;;;;;;;13.32;2.25;;;8.90;99.90;;;;;;5036109;28;20440;-74
2022/01/22 09:46:15;;;;;;;9.40;1.50;;;8.90;99.90;;;;;;5035902;28;20018;-74
2022/01/22 09:48:43;;;;;;;11.05;1.58;;;8.90;99.90;;;;;;5036179;28;20040;-74
2022/01/22 09:51:11;;;;;;;6.38;1.15;;;8.90;99.90;;;;;;5036147;28;20473;-75
2022/01/22 09:53:41;;;;;;;13.75;1.75;;;9.00;99.90;;;;;;5036214;28;20025;-75
2022/01/22 09:56:06;;;;;;;9.68;1.75;;;9.00;99.90;;;;;;5035754;28;20030;-74
2022/01/22 09:58:32;;;;;;;11.68;1.75;;;9.00;99.90;;;;;;5036150;28;20104;-75
2022/01/22 10:01:21;;;;;;;8.57;1.45;;;9.00;99.90;;;;;;5035805;28;20075;-75
2022/01/22 10:03:47;;;;;;;13.10;1.70;;;9.10;99.90;;;;;;5037287;28;20029;-74
2022/01/22 10:06:24;;;;;;;11.63;1.60;;;9.20;99.90;;;;;;5039193;28;20378;-74
2022/01/22 10:08:54;;;;;;;15.95;1.52;;;9.20;99.90;;;;;;5035873;28;20117;-75
2022/01/22 10:11:21;;;;;;;9.13;1.75;;;9.20;99.90;;;;;;5035324;28;20021;-75
2022/01/22 10:13:50;;;;;;;5.88;1.55;;;9.30;99.90;;;;;;5035724;28;20037;-75
2022/01/22 10:16:37;;;;;;;10.82;1.80;;;9.30;99.90;;;;;;5035261;28;20507;-76
2022/01/22 10:19:22;;;;;;;11.55;1.80;;;9.40;99.90;;;;;;5050804;28;20098;-75
2022/01/22 10:22:00;;;;;;;10.05;2.10;;;9.40;99.90;;;;;;5035374;28;20025;-76
2022/01/22 10:24:37;;;;;;;8.40;1.42;;;9.40;99.90;;;;;;5035467;28;20036;-75
2022/01/22 10:27:36;;;;;;;8.90;1.77;;;9.40;99.90;;;;;;5035209;28;20049;-76
2022/01/22 10:30:13;;;;;;;7.57;1.35;;;9.40;99.90;;;;;;5034273;28;20033;-74
2022/01/22 10:35:13;;;;;;;14.15;2.03;;;9.30;99.90;;;;;;5035285;28;20021;-73
2022/01/22 10:37:39;;;;;;;7.55;1.85;;;9.20;99.90;;;;;;5035103;28;20021;-74
2022/01/22 10:40:27;;;;;;;7.53;1.63;;;9.10;99.90;;;;;;5035368;28;20035;-72
2022/01/22 10:43:30;;;;;;;14.07;1.55;;;9.10;99.90;;;;;;5034855;28;20469;-76
2022/01/22 10:46:01;;;;;;;14.05;1.73;;;9.20;99.90;;;;;;5035115;28;20108;-77
2022/01/22 10:48:27;;;;;;;10.27;1.65;;;9.30;99.90;;;;;;5034922;28;20037;-77
2022/01/22 10:51:23;;;;;;;8.80;1.25;;;9.20;99.90;;;;;;5035058;28;20072;-76
2022/01/22 10:53:55;;;;;;;12.63;1.80;;;9.10;99.90;;;;;;5030163;28;20118;-78
2022/01/22 10:56:23;;;;;;;9.52;1.63;;;9.10;99.90;;;;;;5034144;28;20453;-75
2022/01/22 10:59:05;;;;;;;11.18;1.52;;;9.20;99.90;;;;;;5035014;28;20026;-75
2022/01/22 11:01:44;;;;;;;6.53;1.10;;;9.20;99.90;;;;;;5034897;28;20021;-74
2022/01/22 11:04:12;;;;;;;5.65;1.05;;;9.20;99.90;;;;;;5035519;28;20075;-74
2022/01/22 11:06:40;;;;;;;10.30;1.50;;;9.10;99.90;;;;;;5034599;28;20042;-74
2022/01/22 11:09:07;;;;;;;10.57;1.17;;;9.10;99.90;;;;;;5034726;28;20038;-79
2022/01/22 11:11:39;;;;;;;10.18;1.17;;;9.10;99.90;;;;;;5034610;28;20025;-78
2022/01/22 11:14:08;;;;;;;7.28;1.35;;;9.10;99.90;;;;;;5034244;28;20040;-77
2022/01/22 11:16:36;;;;;;;6.93;1.23;;;9.10;99.90;;;;;;5034561;28;20043;-78
2022/01/22 11:19:02;;;;;;;7.47;1.10;;;9.10;99.90;;;;;;5034345;28;20033;-78
2022/01/22 11:21:30;;;;;;;6.78;1.20;;;9.10;99.90;;;;;;5034622;28;20420;-79
2022/01/22 11:23:56;;;;;;;5.63;0.90;;;9.20;99.90;;;;;;5033979;28;20082;-79
2022/01/22 11:26:22;;;;;;;7.60;1.60;;;9.10;99.90;;;;;;5034326;28;20384;-78
2022/01/22 11:28:52;;;;;;;13.13;1.60;;;9.10;99.90;;;;;;5034340;28;20033;-76
2022/01/22 11:31:19;;;;;;;11.85;1.70;;;9.10;99.90;;;;;;5034023;28;20022;-75
2022/01/22 11:33:47;;;;;;;6.47;1.50;;;9.10;99.90;;;;;;5033962;28;20045;-74
2022/01/22 11:36:21;;;;;;;7.63;1.60;;;9.10;99.90;;;;;;5034183;28;20100;-75
2022/01/22 11:38:56;;;;;;;6.78;1.63;;;9.20;99.90;;;;;;5033854;28;20025;-76
2022/01/22 11:41:23;;;;;;;13.85;2.70;;;9.10;99.90;;;;;;5034199;28;20025;-76
2022/01/22 11:44:03;;;;;;;7.22;1.30;;;9.10;99.90;;;;;;5034025;28;20108;-76
2022/01/22 11:46:41;;;;;;;11.93;2.55;;;9.10;99.90;;;;;;5033897;28;20026;-76
2022/01/22 11:49:27;;;;;;;7.38;2.17;;;9.10;99.90;;;;;;5033666;28;20033;-76
2022/01/22 11:52:12;;;;;;;9.48;2.03;;;9.10;99.90;;;;;;5034092;28;20025;-78
2022/01/22 11:54:57;;;;;;;7.95;2.20;;;9.00;99.90;;;;;;5033625;28;20112;-77
2022/01/22 11:57:26;;;;;;;7.80;2.10;;;9.10;99.90;;;;;;5033641;28;20393;-77
2022/01/22 12:00:30;;;;;;;7.63;1.92;;;9.00;99.80;;;;;;5033671;28;20091;-77
2022/01/22 12:03:25;;;;;;;6.53;1.63;;;9.10;99.90;;;;;;5011689;28;20593;-77
2022/01/22 12:05:53;;;;;;;7.60;1.95;;;9.10;99.90;;;;;;4998947;28;20042;-76
2022/01/22 12:08:20;;;;;;;5.68;1.60;;;9.10;99.90;;;;;;5026232;28;20049;-77
2022/01/22 12:16:36;;;;;;;10.15;1.38;;;9.20;99.40;;;;;;5033398;28;20032;-76
2022/01/22 12:19:03;;;;;;;9.30;1.73;;;9.20;99.30;;;;;;5033051;28;20840;-76
2022/01/22 12:21:37;;;;;;;8.73;1.40;;;9.20;99.30;;;;;;5033524;28;20040;-76
2022/01/22 12:24:05;;;;;;;10.10;1.98;;;9.20;99.40;;;;;;5033369;28;20030;-76
2022/01/22 12:26:40;;;;;;;7.57;1.75;;;9.30;99.40;;;;;;5033220;28;20044;-76
2022/01/22 12:29:28;;;;;;;8.80;2.53;;;9.30;99.40;;;;;;5031827;28;20149;-75
2022/01/22 12:32:15;;;;;;;6.90;1.63;;;9.20;99.50;;;;;;5033108;28;20021;-75
2022/01/22 12:35:05;;;;;;;7.63;1.77;;;9.30;99.50;;;;;;5033345;28;20029;-75
2022/01/22 12:37:31;;;;;;;8.18;1.90;;;9.30;99.30;;;;;;5033368;28;20487;-74
2022/01/22 12:39:57;;;;;;;5.03;1.92;;;9.30;99.10;;;;;;5033313;28;20025;-75
2022/01/22 12:42:55;;;;;;;8.98;1.83;;;9.30;99.00;;;;;;5033355;28;20036;-77
2022/01/22 12:45:24;;;;;;;4.35;1.55;;;9.30;98.90;;;;;;5032940;28;20033;-75
2022/01/22 12:47:51;;;;;;;9.18;2.28;;;9.40;99.10;;;;;;5033193;28;20029;-77
2022/01/22 12:50:23;;;;;;;8.30;1.40;;;9.40;99.00;;;;;;5032890;28;20417;-77
2022/01/22 12:52:51;;;;;;;7.13;1.73;;;9.40;98.90;;;;;;5034675;28;20109;-76
2022/01/22 12:55:19;;;;;;;5.35;1.42;;;9.40;98.80;;;;;;5037081;28;20164;-76
2022/01/22 12:57:45;;;;;;;7.38;1.95;;;9.50;98.80;;;;;;5036921;28;20036;-76
2022/01/22 13:02:40;;;;;;;7.13;1.70;;;9.40;98.10;;;;;;5037216;28;20030;-75
2022/01/22 13:05:07;;;;;;;7.55;1.63;;;9.40;98.20;;;;;;5036824;28;20040;-75
2022/01/22 13:07:38;;;;;;;5.55;1.50;;;9.40;98.10;;;;;;5036494;28;20045;-75
2022/01/22 13:10:07;;;;;;;7.20;1.80;;;9.40;98.10;;;;;;5036745;28;20060;-75
2022/01/22 13:12:35;;;;;;;4.03;1.60;;;9.30;97.90;;;;;;5036460;28;20109;-75
2022/01/22 13:15:01;;;;;;;6.85;1.60;;;9.30;98.00;;;;;;5036634;28;20029;-75
2022/01/22 13:17:31;;;;;;;5.90;1.40;;;9.30;98.10;;;;;;5036908;28;20083;-76
2022/01/22 13:20:01;;;;;;;3.63;2.00;;;9.40;98.10;;;;;;5036467;28;20018;-75
2022/01/22 13:22:31;;;;;;;6.28;2.08;;;9.40;98.10;;;;;;5036528;28;20484;-76
2022/01/22 13:25:04;;;;;;;10.65;2.63;;;9.30;98.10;;;;;;5036576;28;20049;-75
2022/01/22 13:27:31;;;;;;;;;;;9.30;98.10;;;;;;5036965;28;20026;-75
2022/01/22 13:29:57;;;;;;;10.30;3.05;;;9.30;98.10;;;;;;5036725;28;19913;-75
2022/01/22 13:32:47;;;;;;;8.57;3.33;;;9.30;98.20;;;;;;5036259;28;20081;-75
2022/01/22 13:49:02;;;;;;;13.32;6.28;;;9.20;98.60;;;;;;5045612;28;20044;-74
2022/01/22 13:51:28;;;;;;;11.25;5.05;;;9.20;98.60;;;;;;5045558;28;20028;-77
2022/01/22 13:53:56;;;;;;;11.18;6.05;;;9.20;98.60;;;;;;5039243;28;20136;-74
2022/01/22 13:56:47;;;;;;;12.05;5.25;;;9.20;98.70;;;;;;5043166;28;20036;-74
2022/01/22 13:59:28;;;;;;;12.57;6.47;;;9.20;98.90;;;;;;5043526;28;20037;-76
2022/01/22 14:02:39;;;;;;;14.18;6.10;;;9.20;99.00;;;;;;5053150;28;20032;-74
2022/01/22 14:05:07;;;;;;;11.35;5.18;;;9.20;99.10;;;;;;5052664;28;20116;-77
2022/01/22 14:07:45;;;;;;;13.93;5.32;;;9.10;99.40;;;;;;5054226;28;20465;-76
2022/01/22 14:10:19;;;;;;;15.25;6.00;;;9.20;99.30;;;;;;5051791;28;20065;-75
2022/01/22 14:12:56;;;;;;;8.95;4.95;;;9.10;99.40;;;;;;5054301;28;20032;-77
2022/01/22 14:15:32;;;;;;;16.33;5.40;;;9.20;99.40;;;;;;5054376;28;20029;-76
2022/01/22 14:18:20;;;;;;;10.57;5.28;;;9.20;99.40;;;;;;5054429;28;20025;-77
2022/01/22 14:20:48;;;;;;;14.43;4.90;;;9.20;99.30;;;;;;5054475;28;20418;-76
2022/01/22 14:23:19;;;;;;;13.32;5.38;;;9.20;99.30;;;;;;5053834;28;20033;-75
2022/01/22 14:26:02;;;;;;;9.85;4.82;;;9.20;99.40;;;;;;5053985;28;20095;-77
2022/01/22 14:28:46;;;;;;;13.18;4.75;;;9.30;99.40;;;;;;5054176;28;20408;-76
2022/01/22 14:31:23;;;;;;;;;;;9.30;99.40;;;;;;5051693;28;20030;-76
2022/01/22 14:33:49;;;;;;;12.50;5.82;;;9.30;99.30;;;;;;5053532;28;19915;-77
2022/01/22 14:36:21;;;;;;;12.80;4.88;;;9.20;99.40;;;;;;5054399;28;20040;-77
2022/01/22 14:38:53;;;;;;;13.13;5.55;;;9.20;99.50;;;;;;5053891;28;20384;-75
2022/01/22 14:47:02;;;;;;;12.60;4.65;;;9.20;99.70;;;;;;5051833;28;20460;-75
2022/01/22 14:49:35;;;;;;;13.60;4.70;;;9.20;99.70;;;;;;5053318;28;20479;-75
2022/01/22 14:52:01;;;;;;;12.63;5.57;;;9.30;99.70;;;;;;5053880;28;20079;-74
2022/01/22 14:54:31;;;;;;;10.48;4.97;;;9.30;99.70;;;;;;5053801;28;20041;-75
2022/01/22 14:56:57;;;;;;;12.48;5.13;;;9.30;99.70;;;;;;5053888;28;20090;-73
2022/01/22 14:59:23;;;;;;;10.05;4.38;;;9.30;99.80;;;;;;5053437;28;20029;-73